This is the latest recevied weather packets stored in our database for station/object KD4IZ-13. If no packets are shown the sender has not sent any weather packets the latest 1 day(s).
| Time | Temp. | Humidity | Pressure | Rain* | Wind** | Luminosity | Snow |
|---|---|---|---|---|---|---|---|
| 1836274755 | 21.11° C | 83% | 1021 hPa | 0 mm | 0.45 m/s, 18° | 0 W/m² | - |
| 1836274452 | 21.11° C | 84% | 1021.1 hPa | 0 mm | 0.45 m/s, 40° | 0 W/m² | - |
| 1836274306 | 21.11° C | 82% | 1021.1 hPa | 0 mm | 0.45 m/s, 47° | 0 W/m² | - |
| 1836274151 | 21.11° C | 84% | 1021.1 hPa | 0 mm | 0 m/s | 0 W/m² | - |
| 1778067061 | 17.78° C | 82% | 1011.1 hPa | 0 mm | 2.68 m/s, 235° | 28 W/m² | - |
| 1778066758 | 17.78° C | 82% | 1010.9 hPa | 0 mm | 2.24 m/s, 217° | 41 W/m² | - |
| 1778066455 | 17.78° C | 82% | 1010.7 hPa | 0 mm | 1.79 m/s, 121° | 49 W/m² | - |
| 1778066153 | 17.78° C | 82% | 1011 hPa | 0 mm | 2.24 m/s, 192° | 31 W/m² | - |
| 1778065850 | 17.78° C | 81% | 1010.8 hPa | 0 mm | 2.24 m/s, 217° | 24 W/m² | - |
| 1778065548 | 17.78° C | 80% | 1010.6 hPa | 0 mm | 1.34 m/s, 262° | 21 W/m² | - |
| 1778065245 | 18.33° C | 79% | 1011 hPa | 0 mm | 1.34 m/s, 261° | 16 W/m² | - |
| 1778064941 | 18.33° C | 79% | 1010.7 hPa | 0 mm | 4.92 m/s, 181° | 15 W/m² | - |
| 1778064639 | 18.33° C | 79% | 1010.7 hPa | 0 mm | 2.68 m/s, 214° | 12 W/m² | - |
| 1778064336 | 18.33° C | 78% | 1010.6 hPa | 0 mm | 2.24 m/s, 190° | 19 W/m² | - |
| 1778064034 | 18.33° C | 78% | 1010.6 hPa | 0 mm | 2.68 m/s, 216° | 12 W/m² | - |
| 1778063731 | 18.33° C | 78% | 1010.5 hPa | 0 mm | 1.34 m/s, 229° | 11 W/m² | - |
| 1778063427 | 18.33° C | 78% | 1010.5 hPa | 0 mm | 1.34 m/s, 210° | 12 W/m² | - |
| 1778063126 | 18.33° C | 78% | 1010.4 hPa | 0 mm | 4.02 m/s, 261° | 10 W/m² | - |
| 1778062823 | 18.33° C | 78% | 1010.2 hPa | 0 mm | 0.89 m/s, 131° | 9 W/m² | - |
| 1778062520 | 18.33° C | 78% | 1010.3 hPa | 0 mm | 1.34 m/s, 265° | 7 W/m² | - |
| 1778062217 | 18.33° C | 77% | 1010.4 hPa | 0 mm | 3.13 m/s, 198° | 3 W/m² | - |
| 1778061915 | 18.33° C | 77% | 1010.4 hPa | 0 mm | 4.47 m/s, 248° | 1 W/m² | - |
| 1778061613 | 18.33° C | 77% | 1010.3 hPa | 0 mm | 3.58 m/s, 211° | 0 W/m² | - |
| 1778061312 | 18.33° C | 77% | 1010.5 hPa | 0 mm | 3.58 m/s, 185° | 0 W/m² | - |
| 1778061007 | 18.33° C | 76% | 1010.5 hPa | 0 mm | 2.24 m/s, 230° | 0 W/m² | - |
* Rain latest hour (hover to see other rain measurements)
** Current wind speed in m/s (hover to see current wind gust speed)